Погода Стяжкинона 2 недели

Пензенская область, Россия

26 мая-08 июня
  • 26мая
    Сегодня
    +9°
    +25°
    Ясно и безоблачно
    ВремяПогодаТемператураВлажностьДавлениеВетер, м/сВероятность осадков
    00:00Ясно и безоблачно+12°C57 %755 мм1.1 м/с2 %
    03:00Ясно и безоблачно+10°C59 %754 мм1.2 м/с2 %
    06:00Ясно и безоблачно+13°C54 %754 мм1.4 м/с2 %
    09:00Ясно и безоблачно+19°C41 %754 мм2.7 м/с2 %
    12:00Ясно и безоблачно+23°C32 %753 мм3.0 м/с2 %
    15:00Ясно и безоблачно+24°C30 %752 мм3.3 м/с2 %
    18:00Облачно с прояснениями+23°C36 %752 мм2.2 м/с2 %
    21:00Пасмурно, сплошная облачность+16°C67 %753 мм1.6 м/с2 %
  • 27мая
    Понедельник
    +7°
    +20°
    Ясно и безоблачно
    ВремяПогодаТемператураВлажностьДавлениеВетер, м/сВероятность осадков
    00:00Практически безоблачно+13°C81 %754 мм1.7 м/с2 %
    03:00Практически безоблачно+10°C80 %755 мм1.9 м/с3 %
    06:00Ясно и безоблачно+12°C74 %756 мм2.1 м/с2 %
    09:00Ясно и безоблачно+15°C45 %757 мм3.1 м/с2 %
    12:00Ясно и безоблачно+18°C33 %757 мм2.9 м/с2 %
    15:00Ясно и безоблачно+19°C31 %756 мм3.0 м/с2 %
    18:00Ясно и безоблачно+19°C34 %756 мм2.4 м/с2 %
    21:00Ясно и безоблачно+13°C52 %756 мм0.9 м/с2 %
  • 28мая
    Вторник
    +11°
    +23°
    Ясно и безоблачно
    ВремяПогодаТемператураВлажностьДавлениеВетер, м/сВероятность осадков
    00:00Ясно и безоблачно+9°C65 %756 мм1.0 м/с2 %
    03:00Ясно и безоблачно+8°C74 %756 мм1.0 м/с2 %
    06:00Ясно и безоблачно+12°C64 %756 мм1.2 м/с2 %
    09:00Ясно и безоблачно+17°C38 %756 мм2.2 м/с2 %
    12:00Ясно и безоблачно+20°C31 %755 мм1.7 м/с2 %
    15:00Ясно и безоблачно+22°C32 %754 мм2.2 м/с2 %
    18:00Ясно и безоблачно+23°C37 %753 мм1.5 м/с2 %
    21:00Ясно и безоблачно+16°C60 %752 мм0.6 м/с2 %
  • 29мая
    Среда
    +11°
    +26°
    Пасмурно, сплошная облачность
    ВремяПогодаТемператураВлажностьДавлениеВетер, м/сВероятность осадков
    00:00Ясно и безоблачно+13°C58 %752 мм0.6 м/с2 %
    03:00Ясно и безоблачно+11°C60 %751 мм0.7 м/с2 %
    06:00Ясно и безоблачно+15°C52 %751 мм0.9 м/с2 %
    09:00Практически безоблачно+21°C35 %751 мм2.3 м/с2 %
    12:00Небольшая облачность+23°C31 %750 мм1.9 м/с2 %
    15:00Пасмурно, сплошная облачность+25°C30 %749 мм2.1 м/с2 %
    18:00Небольшая облачность+25°C39 %749 мм1.4 м/с2 %
    21:00Ясно и безоблачно+18°C63 %748 мм0.5 м/с2 %
  • 30мая
    Четверг
    +15°
    +26°
    Практически безоблачно
    ВремяПогодаТемператураВлажностьДавлениеВетер, м/сВероятность осадков
    00:00Облачно с прояснениями+15°C60 %748 мм0.5 м/с2 %
    03:00Облачно с прояснениями+13°C54 %748 мм0.7 м/с2 %
    06:00Ясно и безоблачно+17°C52 %748 мм0.8 м/с2 %
    09:00Облачно с прояснениями+23°C34 %748 мм1.7 м/с2 %
    12:00Облачно с прояснениями+25°C26 %748 мм1.7 м/с2 %
    15:00Практически безоблачно+26°C23 %747 мм2.4 м/с2 %
    18:00Ясно и безоблачно+25°C29 %747 мм1.9 м/с3 %
    21:00Ясно и безоблачно+19°C45 %746 мм0.4 м/с2 %
Мы используем cookies
Соглашаюсь